.
WxDataArchive / Data Records for 2009-03-13
2009-03-12 March 2009 2009-03-14

Data Records for Friday, 13 March 2009

Time	Temp	Chill	HIndex	Humid	Dewpt	 Wind 	HiWind	WindDir	Rain 	Barom 
-----	----	-----	------	-----	-----	------	------	-------	-----	----- 
00:00	21.0	21.0	21.0	82	16.4	0	0	---	0.00	30.567 
00:05	21.0	21.0	21.0	83	16.7	0	0	---	0.00	30.563 
00:10	20.8	20.8	20.8	83	16.5	0	0	---	0.00	30.560 
00:15	20.6	20.6	20.6	83	16.3	0	0	---	0.00	30.558 
00:20	20.6	20.6	20.6	83	16.3	0	0	---	0.00	30.558 
00:25	20.5	20.5	20.5	84	16.4	0	0	---	0.00	30.559 
00:30	20.5	20.5	20.5	84	16.4	0	0	---	0.00	30.558 
00:35	20.3	20.3	20.3	84	16.3	0	0	---	0.00	30.558 
00:40	20.3	20.3	20.3	84	16.3	0	0	---	0.00	30.560 
00:45	20.3	20.3	20.3	84	16.3	0	0	---	0.00	30.560 
00:50	20.2	20.2	20.2	85	16.4	0	0	---	0.00	30.559 
00:55	20.2	20.2	20.2	85	16.4	0	0	---	0.00	30.560 
01:00	20.0	20.0	20.0	85	16.2	0	0	---	0.00	30.559 
01:05	20.0	20.0	20.0	85	16.2	0	0	---	0.00	30.557 
01:10	20.0	20.0	20.0	85	16.2	0	0	---	0.00	30.557 
01:15	19.9	19.9	19.9	85	16.1	0	0	---	0.00	30.557 
01:20	19.7	19.7	19.7	85	15.9	0	0	---	0.00	30.557 
01:25	19.5	19.5	19.5	85	15.7	0	0	---	0.00	30.556 
01:30	19.4	19.4	19.4	85	15.6	0	0	---	0.00	30.555 
01:35	19.2	19.2	19.2	85	15.4	0	0	---	0.00	30.556 
01:40	19.2	19.2	19.2	85	15.4	0	0	---	0.00	30.557 
01:45	19.1	19.1	19.1	86	15.6	0	0	---	0.00	30.557 
01:50	19.1	19.1	19.1	86	15.6	0	0	---	0.00	30.557 
01:55	19.1	19.1	19.1	86	15.6	0	0	---	0.00	30.556 
02:00	19.1	19.1	19.1	87	15.9	0	0	---	0.00	30.556 
02:05	18.9	18.9	18.9	87	15.7	0	0	---	0.00	30.556 
02:10	18.8	18.8	18.8	87	15.6	0	0	---	0.00	30.553 
02:15	18.6	18.6	18.6	87	15.4	0	0	---	0.00	30.550 
02:20	18.6	18.6	18.6	87	15.4	0	0	---	0.00	30.551 
02:25	18.6	18.6	18.6	87	15.4	0	0	---	0.00	30.550 
02:30	18.6	18.6	18.6	88	15.6	0	0	---	0.00	30.550 
02:35	18.6	18.6	18.6	88	15.6	0	0	---	0.00	30.549 
02:40	18.6	18.6	18.6	88	15.6	0	0	---	0.00	30.547 
02:45	18.4	18.4	18.4	88	15.5	0	0	---	0.00	30.545 
02:50	18.4	18.4	18.4	88	15.5	0	0	---	0.00	30.544 
02:55	18.4	18.4	18.4	88	15.5	0	0	---	0.00	30.543 
03:00	18.4	18.4	18.4	88	15.5	0	0	---	0.00	30.543 
03:05	18.4	18.4	18.4	88	15.5	0	0	---	0.00	30.544 
03:10	18.4	18.4	18.4	88	15.5	0	0	---	0.00	30.543 
03:15	18.3	18.3	18.3	88	15.4	0	0	---	0.00	30.543 
03:20	18.1	18.1	18.1	88	15.2	0	0	---	0.00	30.542 
03:25	18.1	18.1	18.1	88	15.2	0	0	---	0.00	30.541 
03:30	18.0	18.0	18.0	88	15.1	0	0	---	0.00	30.538 
03:35	18.0	18.0	18.0	89	15.3	0	0	---	0.00	30.540 
03:40	18.0	18.0	18.0	89	15.3	0	0	---	0.00	30.539 
03:45	17.8	17.8	17.8	89	15.1	0	0	---	0.00	30.532 
03:50	17.8	17.8	17.8	89	15.1	0	0	---	0.00	30.532 
03:55	17.8	17.8	17.8	89	15.1	0	0	---	0.00	30.531 
04:00	17.8	17.8	17.8	89	15.1	0	0	---	0.00	30.529 
04:05	17.8	17.8	17.8	89	15.1	0	0	---	0.00	30.530 
04:10	17.8	17.8	17.8	89	15.1	0	0	---	0.00	30.532 
04:15	18.0	18.0	18.0	89	15.3	0	0	---	0.00	30.531 
04:20	18.0	18.0	18.0	89	15.3	0	0	---	0.00	30.533 
04:25	18.0	18.0	18.0	89	15.3	0	0	---	0.00	30.537 
04:30	17.8	17.8	17.8	89	15.1	0	0	---	0.00	30.533 
04:35	17.8	17.8	17.8	89	15.1	0	0	---	0.00	30.530 
04:40	17.8	17.8	17.8	89	15.1	0	0	---	0.00	30.530 
04:45	17.8	17.8	17.8	90	15.4	0	0	---	0.00	30.529 
04:50	18.0	18.0	18.0	90	15.6	0	0	---	0.00	30.530 
04:55	18.0	18.0	18.0	90	15.6	0	0	---	0.00	30.531 
05:00	18.0	18.0	18.0	90	15.6	0	0	---	0.00	30.534 
05:05	18.0	18.0	18.0	90	15.6	0	0	---	0.00	30.535 
05:10	18.0	18.0	18.0	90	15.6	0	0	---	0.00	30.538 
05:15	18.1	18.1	18.1	90	15.7	0	0	---	0.00	30.535 
05:20	18.3	18.3	18.3	90	15.9	0	0	---	0.00	30.537 
05:25	18.4	18.4	18.4	90	16.0	0	0	---	0.00	30.539 
05:30	18.6	18.6	18.6	90	16.2	0	0	---	0.00	30.538 
05:35	18.6	18.6	18.6	90	16.2	0	0	---	0.00	30.537 
05:40	18.4	18.4	18.4	90	16.0	0	0	---	0.00	30.534 
05:45	18.4	18.4	18.4	90	16.0	0	0	---	0.00	30.533 
05:50	18.6	18.6	18.6	90	16.2	0	1	90	0.00	30.529 
05:55	19.1	19.1	19.1	91	16.9	0	1	90	0.00	30.528 
06:00	19.4	19.4	19.4	91	17.2	0	1	90	0.00	30.527 
06:05	19.9	19.9	19.9	91	17.7	0	2	90	0.00	30.526 
06:10	20.2	20.2	20.2	90	17.7	0	1	90	0.00	30.526 
06:15	20.3	20.3	20.3	90	17.8	0	1	90	0.00	30.527 
06:20	20.5	20.5	20.5	90	18.0	0	1	90	0.00	30.528 
06:25	20.5	20.5	20.5	89	17.8	0	1	90	0.00	30.528 
06:30	20.5	20.5	20.5	89	17.8	0	1	90	0.00	30.528 
06:35	20.5	20.5	20.5	89	17.8	0	1	90	0.00	30.527 
06:40	20.5	20.5	20.5	89	17.8	0	1	90	0.00	30.526 
06:45	20.5	20.5	20.5	89	17.8	0	1	90	0.00	30.526 
06:50	20.3	20.3	20.3	89	17.6	0	1	90	0.00	30.524 
06:55	20.3	20.3	20.3	89	17.6	0	1	90	0.00	30.520 
07:00	20.2	20.2	20.2	89	17.5	0	0	---	0.00	30.517 
07:05	20.2	20.2	20.2	89	17.5	0	2	90	0.00	30.523 
07:10	20.3	20.3	20.3	89	17.6	0	1	90	0.00	30.521 
07:15	20.6	20.6	20.6	89	17.9	0	1	90	0.00	30.525 
07:20	21.0	21.0	21.0	89	18.3	1	2	90	0.00	30.527 
07:25	21.6	21.6	21.6	87	18.3	1	6	90	0.00	30.528 
07:30	22.1	22.1	22.1	85	18.3	1	2	90	0.00	30.528 
07:35	22.5	22.5	22.5	84	18.4	1	3	90	0.00	30.527 
07:40	23.0	23.0	23.0	82	18.3	1	3	90	0.00	30.527 
07:45	23.2	23.2	23.2	80	18.0	1	3	90	0.00	30.527 
07:50	23.5	23.5	23.5	79	18.0	1	4	112	0.00	30.529 
07:55	23.9	23.9	23.9	79	18.4	2	3	112	0.00	30.528 
08:00	24.1	24.1	24.1	74	17.0	3	6	112	0.00	30.531 
08:05	24.2	19.1	24.2	71	16.2	4	10	90	0.00	30.531 
08:10	24.2	24.2	24.2	71	16.2	3	6	90	0.00	30.533 
08:15	24.4	24.4	24.4	71	16.4	3	5	90	0.00	30.532 
08:20	24.7	24.7	24.7	69	16.0	3	10	112	0.00	30.533 
08:25	24.8	24.8	24.8	69	16.1	3	5	112	0.00	30.538 
08:30	24.8	19.8	24.8	68	15.8	4	7	112	0.00	30.539 
08:35	25.1	25.1	25.1	69	16.4	3	6	90	0.00	30.540 
08:40	25.6	25.6	25.6	68	16.5	2	6	112	0.00	30.539 
08:45	25.7	25.7	25.7	67	16.3	3	7	90	0.00	30.535 
08:50	26.0	26.0	26.0	67	16.6	3	7	112	0.00	30.534 
08:55	26.3	26.3	26.3	65	16.2	3	7	90	0.00	30.534 
09:00	26.4	26.4	26.4	66	16.6	3	6	90	0.00	30.529 
09:05	26.6	26.6	26.6	66	16.8	3	7	112	0.00	30.529 
09:10	27.0	27.0	27.0	65	16.8	3	6	112	0.00	30.530 
09:15	27.5	27.5	27.5	65	17.3	3	6	90	0.00	30.526 
09:20	27.6	23.0	27.6	62	16.3	4	8	112	0.00	30.525 
09:25	27.6	27.6	27.6	66	17.8	3	7	112	0.00	30.524 
09:30	27.8	23.2	27.8	65	17.6	4	11	112	0.00	30.523 
09:35	27.9	23.3	27.9	65	17.7	4	10	112	0.00	30.520 
09:40	28.1	28.1	28.1	65	17.9	3	6	90	0.00	30.519 
09:45	28.2	23.7	28.2	64	17.6	4	7	112	0.00	30.517 
09:50	28.1	22.5	28.1	65	17.9	5	10	112	0.00	30.519 
09:55	28.2	23.7	28.2	65	18.0	4	9	90	0.00	30.518 
10:00	28.2	22.6	28.2	65	18.0	5	9	112	0.00	30.518 
10:05	28.7	28.7	28.7	65	18.4	3	6	112	0.00	30.518 
10:10	29.1	29.1	29.1	65	18.8	2	7	112	0.00	30.516 
10:15	29.4	29.4	29.4	64	18.8	3	7	112	0.00	30.515 
10:20	29.4	29.4	29.4	63	18.4	3	7	112	0.00	30.509 
10:25	29.3	29.3	29.3	64	18.7	3	7	112	0.00	30.511 
10:30	29.4	29.4	29.4	64	18.8	3	9	112	0.00	30.511 
10:35	29.3	29.3	29.3	64	18.7	3	7	112	0.00	30.511 
10:40	29.5	29.5	29.5	63	18.5	2	7	112	0.00	30.511 
10:45	30.0	30.0	30.0	61	18.2	3	10	112	0.00	30.508 
10:50	30.0	30.0	30.0	64	19.3	3	10	112	0.00	30.505 
10:55	30.4	30.4	30.4	63	19.3	3	7	112	0.00	30.506 
11:00	30.0	30.0	30.0	63	19.0	3	8	112	0.00	30.506 
11:05	30.0	24.7	30.0	62	18.6	5	10	112	0.00	30.505 
11:10	30.3	30.3	30.3	62	18.9	3	6	112	0.00	30.501 
11:15	30.7	30.7	30.7	62	19.2	3	7	112	0.00	30.499 
11:20	31.2	31.2	31.2	61	19.3	3	7	90	0.00	30.496 
11:25	31.2	31.2	31.2	63	20.1	2	7	90	0.00	30.499 
11:30	31.5	27.5	31.5	61	19.6	4	9	90	0.00	30.498 
11:35	31.5	27.5	31.5	59	18.8	4	10	112	0.00	30.494 
11:40	31.3	31.3	31.3	62	19.8	3	9	90	0.00	30.492 
11:45	31.8	27.8	31.8	61	19.9	4	7	90	0.00	30.490 
11:50	31.9	31.9	31.9	61	20.0	3	6	90	0.00	30.488 
11:55	31.8	31.8	31.8	63	20.7	3	7	90	0.00	30.487 
12:00	32.1	32.1	32.1	59	19.4	3	10	90	0.00	30.487 
12:05	32.1	32.1	32.1	61	20.2	3	5	90	0.00	30.486 
12:10	32.5	32.5	32.5	60	20.2	3	7	112	0.00	30.483 
12:15	32.4	27.5	32.4	59	19.7	5	10	112	0.00	30.480 
12:20	32.8	32.8	32.8	60	20.5	2	5	90	0.00	30.479 
12:25	32.9	32.9	32.9	59	20.2	3	11	90	0.00	30.478 
12:30	32.8	32.8	32.8	61	20.9	3	9	112	0.00	30.477 
12:35	32.9	32.9	32.9	60	20.6	3	7	112	0.00	30.476 
12:40	32.9	29.1	32.9	59	20.2	4	11	112	0.00	30.474 
12:45	32.9	28.1	32.9	57	19.4	5	10	112	0.00	30.474 
12:50	32.8	32.8	32.8	60	20.5	3	9	112	0.00	30.473 
12:55	33.1	33.1	33.1	60	20.7	2	5	112	0.00	30.469 
13:00	33.4	33.4	33.4	60	21.0	2	6	112	0.00	30.467 
13:05	33.8	33.8	33.8	59	21.0	3	9	90	0.00	30.465 
13:10	34.0	30.4	34.0	59	21.2	4	11	112	0.00	30.462 
13:15	34.4	34.4	34.4	60	22.0	2	9	112	0.00	30.462 
13:20	34.9	34.9	34.9	58	21.6	2	7	90	0.00	30.459 
13:25	35.2	35.2	35.2	57	21.5	2	4	112	0.00	30.460 
13:30	35.2	35.2	35.2	56	21.1	2	7	90	0.00	30.458 
13:35	34.9	34.9	34.9	59	22.0	2	5	90	0.00	30.456 
13:40	35.0	35.0	35.0	58	21.7	2	6	112	0.00	30.452 
13:45	35.2	35.2	35.2	58	21.9	1	5	135	0.00	30.447 
13:50	34.9	34.9	34.9	58	21.6	2	6	112	0.00	30.445 
13:55	35.0	35.0	35.0	58	21.7	1	4	112	0.00	30.443 
14:00	35.2	35.2	35.2	58	21.9	3	6	112	0.00	30.442 
14:05	35.3	35.3	35.3	57	21.6	1	5	112	0.00	30.441 
14:10	35.6	35.6	35.6	53	20.2	1	3	112	0.00	30.431 
14:15	35.8	35.8	35.8	53	20.4	2	6	112	0.00	30.429 
14:20	35.9	35.9	35.9	51	19.6	1	4	90	0.00	30.427 
14:25	36.0	36.0	36.0	52	20.1	2	5	90	0.00	30.420 
14:30	36.0	36.0	36.0	52	20.1	1	4	112	0.00	30.418 
14:35	36.0	36.0	36.0	54	21.0	1	3	112	0.00	30.417 
14:40	36.2	36.2	36.2	54	21.2	1	3	135	0.00	30.414 
14:45	36.2	36.2	36.2	56	22.0	1	3	112	0.00	30.411 
14:50	36.3	36.3	36.3	53	20.8	1	3	112	0.00	30.411 
14:55	36.6	36.6	36.6	54	21.5	1	2	135	0.00	30.411 
15:00	37.0	37.0	37.0	53	21.5	1	3	45	0.00	30.412 
15:05	37.2	37.2	37.2	54	22.1	1	4	90	0.00	30.412 
15:10	37.2	37.2	37.2	54	22.1	1	2	90	0.00	30.411 
15:15	37.3	37.3	37.3	53	21.8	1	4	90	0.00	30.410 
15:20	37.2	37.2	37.2	54	22.1	1	4	90	0.00	30.407 
15:25	37.0	37.0	37.0	53	21.5	1	3	135	0.00	30.403 
15:30	37.2	37.2	37.2	52	21.2	0	2	135	0.00	30.402 
15:35	37.3	37.3	37.3	52	21.3	0	3	90	0.00	30.399 
15:40	37.3	37.3	37.3	51	20.9	0	2	90	0.00	30.396 
15:45	37.6	37.6	37.6	53	22.0	0	2	90	0.00	30.394 
15:50	38.0	38.0	38.0	54	22.9	0	2	68	0.00	30.394 
15:55	37.9	37.9	37.9	50	20.9	2	7	112	0.00	30.392 
16:00	37.8	37.8	37.8	50	20.8	1	6	112	0.00	30.390 
16:05	37.5	37.5	37.5	51	21.0	1	3	112	0.00	30.387 
16:10	37.3	37.3	37.3	50	20.4	1	5	112	0.00	30.384 
16:15	37.2	37.2	37.2	50	20.3	2	4	112	0.00	30.383 
16:20	37.3	37.3	37.3	50	20.4	1	3	112	0.00	30.381 
16:25	37.3	37.3	37.3	48	19.4	1	4	112	0.00	30.380 
16:30	37.5	37.5	37.5	49	20.1	1	4	90	0.00	30.377 
16:35	37.6	37.6	37.6	48	19.7	0	1	90	0.00	30.377 
16:40	37.8	37.8	37.8	48	19.9	0	2	90	0.00	30.377 
16:45	37.9	37.9	37.9	50	20.9	0	2	90	0.00	30.374 
16:50	37.8	37.8	37.8	48	19.9	1	3	90	0.00	30.374 
16:55	37.8	37.8	37.8	50	20.8	0	2	90	0.00	30.369 
17:00	37.6	37.6	37.6	49	20.2	1	4	112	0.00	30.367 
17:05	37.8	37.8	37.8	51	21.3	1	2	112	0.00	30.363 
17:10	37.9	37.9	37.9	50	20.9	0	2	68	0.00	30.362 
17:15	37.8	37.8	37.8	49	20.4	0	2	68	0.00	30.358 
17:20	37.6	37.6	37.6	50	20.7	0	2	68	0.00	30.354 
17:25	37.6	37.6	37.6	50	20.7	0	1	68	0.00	30.351 
17:30	37.5	37.5	37.5	50	20.6	0	1	68	0.00	30.351 
17:35	37.5	37.5	37.5	51	21.0	2	4	90	0.00	30.348 
17:40	37.5	37.5	37.5	50	20.6	2	4	90	0.00	30.348 
17:45	37.3	37.3	37.3	51	20.9	1	4	90	0.00	30.347 
17:50	37.2	37.2	37.2	50	20.3	1	3	90	0.00	30.346 
17:55	37.2	37.2	37.2	50	20.3	1	3	90	0.00	30.344 
18:00	37.0	37.0	37.0	52	21.0	1	3	90	0.00	30.345 
18:05	37.0	37.0	37.0	53	21.5	1	3	90	0.00	30.347 
18:10	36.9	36.9	36.9	53	21.4	0	1	90	0.00	30.347 
18:15	36.6	36.6	36.6	54	21.5	0	2	90	0.00	30.346 
18:20	36.5	36.5	36.5	53	21.0	0	2	90	0.00	30.346 
18:25	36.3	36.3	36.3	54	21.3	0	2	90	0.00	30.346 
18:30	36.2	36.2	36.2	55	21.6	0	1	90	0.00	30.346 
18:35	36.0	36.0	36.0	55	21.4	0	1	90	0.00	30.347 
18:40	35.9	35.9	35.9	55	21.3	0	1	90	0.00	30.351 
18:45	35.8	35.8	35.8	56	21.7	0	0	---	0.00	30.355 
18:50	35.6	35.6	35.6	56	21.5	0	0	---	0.00	30.356 
18:55	35.3	35.3	35.3	57	21.6	0	0	---	0.00	30.360 
19:00	34.9	34.9	34.9	58	21.6	0	1	90	0.00	30.361 
19:05	34.6	34.6	34.6	58	21.4	0	0	---	0.00	30.351 
19:10	34.3	34.3	34.3	59	21.5	0	0	---	0.00	30.350 
19:15	34.0	34.0	34.0	60	21.6	0	0	---	0.00	30.352 
19:20	33.5	33.5	33.5	60	21.1	0	0	---	0.00	30.359 
19:25	33.2	33.2	33.2	61	21.2	0	0	---	0.00	30.355 
19:30	32.9	32.9	32.9	62	21.3	0	1	90	0.00	30.353 
19:35	32.8	32.8	32.8	62	21.2	0	0	---	0.00	30.350 
19:40	32.7	32.7	32.7	62	21.1	0	0	---	0.00	30.355 
19:45	32.5	32.5	32.5	62	20.9	0	0	---	0.00	30.355 
19:50	32.4	32.4	32.4	63	21.2	0	0	---	0.00	30.361 
19:55	32.1	32.1	32.1	63	20.9	0	0	---	0.00	30.360 
20:00	31.6	31.6	31.6	63	20.5	0	0	---	0.00	30.362 
20:05	31.3	31.3	31.3	65	20.9	0	0	---	0.00	30.361 
20:10	31.0	31.0	31.0	65	20.6	0	0	---	0.00	30.363 
20:15	30.9	30.9	30.9	66	20.9	0	0	---	0.00	30.353 
20:20	30.7	30.7	30.7	67	21.1	0	0	---	0.00	30.349 
20:25	30.6	30.6	30.6	67	21.0	0	0	---	0.00	30.346 
20:30	30.6	30.6	30.6	68	21.3	0	0	---	0.00	30.351 
20:35	30.6	30.6	30.6	68	21.3	0	0	---	0.00	30.349 
20:40	30.4	30.4	30.4	69	21.5	0	0	---	0.00	30.355 
20:45	30.3	30.3	30.3	69	21.4	0	0	---	0.00	30.358 
20:50	30.0	30.0	30.0	69	21.1	0	0	---	0.00	30.359 
20:55	29.8	29.8	29.8	69	20.9	0	0	---	0.00	30.359 
21:00	29.5	29.5	29.5	70	20.9	0	0	---	0.00	30.351 
21:05	29.3	29.3	29.3	70	20.8	0	0	---	0.00	30.348 
21:10	29.1	29.1	29.1	71	20.9	0	0	---	0.00	30.346 
21:15	28.8	28.8	28.8	72	20.9	0	0	---	0.00	30.347 
21:20	28.7	28.7	28.7	73	21.2	0	0	---	0.00	30.347 
21:25	28.5	28.5	28.5	73	21.0	0	0	---	0.00	30.349 
21:30	28.4	28.4	28.4	74	21.2	0	0	---	0.00	30.349 
21:35	28.2	28.2	28.2	74	21.0	0	0	---	0.00	30.349 
21:40	28.1	28.1	28.1	75	21.2	0	0	---	0.00	30.349 
21:45	27.9	27.9	27.9	75	21.0	0	0	---	0.00	30.349 
21:50	27.6	27.6	27.6	75	20.7	0	0	---	0.00	30.350 
21:55	27.5	27.5	27.5	76	20.9	0	0	---	0.00	30.355 
22:00	27.5	27.5	27.5	77	21.3	0	0	---	0.00	30.359 
22:05	27.5	27.5	27.5	77	21.3	0	0	---	0.00	30.358 
22:10	27.3	27.3	27.3	77	21.1	0	0	---	0.00	30.359 
22:15	27.0	27.0	27.0	77	20.8	0	0	---	0.00	30.361 
22:20	27.0	27.0	27.0	78	21.1	0	0	---	0.00	30.362 
22:25	26.9	26.9	26.9	78	21.0	0	0	---	0.00	30.363 
22:30	26.9	26.9	26.9	79	21.3	0	0	---	0.00	30.363 
22:35	26.7	26.7	26.7	79	21.1	0	0	---	0.00	30.364 
22:40	26.6	26.6	26.6	79	21.0	0	0	---	0.00	30.363 
22:45	26.3	26.3	26.3	79	20.7	0	0	---	0.00	30.362 
22:50	26.1	26.1	26.1	79	20.5	0	0	---	0.00	30.361 
22:55	26.0	26.0	26.0	80	20.7	0	0	---	0.00	30.362 
23:00	25.8	25.8	25.8	81	20.8	0	0	---	0.00	30.361 
23:05	25.8	25.8	25.8	81	20.8	0	0	---	0.00	30.360 
23:10	25.8	25.8	25.8	82	21.1	0	0	---	0.00	30.361 
23:15	25.8	25.8	25.8	82	21.1	0	0	---	0.00	30.360 
23:20	25.7	25.7	25.7	82	21.0	0	0	---	0.00	30.360 
23:25	25.6	25.6	25.6	82	20.9	0	0	---	0.00	30.356 
23:30	25.4	25.4	25.4	82	20.7	0	0	---	0.00	30.357 
23:35	25.3	25.3	25.3	82	20.6	0	0	---	0.00	30.354 
23:40	25.3	25.3	25.3	83	20.9	0	0	---	0.00	30.357 
23:45	25.1	25.1	25.1	83	20.7	0	0	---	0.00	30.352 
23:50	25.1	25.1	25.1	84	21.0	0	0	---	0.00	30.351 
23:55	25.1	25.1	25.1	84	21.0	0	0	---	0.00	30.352 

CoCoRaHS
IN-AL-39
A2 Web Hosting
Creative Commons License
GoDaddy
search engine by freefind advanced

loaded 2018-11-13 23:21:22 • last modified 2010-11-18 10:43:29
Privacy PolicyDisclaimer
• wx.awcolley.com is powered by PmWiki v.2002016 •
• all content (unless otherwise noted) © 2018 A W Colley